sensor_id;sensor_type;location;lat;lon;timestamp;pressure;altitude;pressure_sealevel;temperature;humidity
61898;BME280;47850;50.274;18.908;2022-12-07T00:01:33;97630.01;;;-0.36;100.00
61898;BME280;47850;50.274;18.908;2022-12-07T00:04:00;97632.05;;;-0.35;100.00
61898;BME280;47850;50.274;18.908;2022-12-07T00:06:40;97627.72;;;-0.32;100.00
61898;BME280;47850;50.274;18.908;2022-12-07T00:09:09;97627.94;;;-0.31;100.00
61898;BME280;47850;50.274;18.908;2022-12-07T00:11:35;97624.08;;;-0.30;100.00
61898;BME280;47850;50.274;18.908;2022-12-07T00:14:03;97621.23;;;-0.29;100.00
61898;BME280;47850;50.274;18.908;2022-12-07T00:16:32;97620.56;;;-0.29;100.00
61898;BME280;47850;50.274;18.908;2022-12-07T00:18:58;97621.79;;;-0.28;100.00
61898;BME280;47850;50.274;18.908;2022-12-07T00:21:29;97621.50;;;-0.29;100.00
61898;BME280;47850;50.274;18.908;2022-12-07T00:23:55;97624.52;;;-0.29;100.00
61898;BME280;47850;50.274;18.908;2022-12-07T00:26:23;97622.68;;;-0.30;100.00
61898;BME280;47850;50.274;18.908;2022-12-07T00:28:52;97622.58;;;-0.31;100.00
61898;BME280;47850;50.274;18.908;2022-12-07T00:31:19;97619.25;;;-0.32;100.00
61898;BME280;47850;50.274;18.908;2022-12-07T00:33:46;97619.77;;;-0.34;100.00
61898;BME280;47850;50.274;18.908;2022-12-07T00:36:18;97619.46;;;-0.35;100.00
61898;BME280;47850;50.274;18.908;2022-12-07T00:38:44;97615.05;;;-0.34;100.00
61898;BME280;47850;50.274;18.908;2022-12-07T00:41:18;97610.98;;;-0.35;100.00
61898;BME280;47850;50.274;18.908;2022-12-07T00:43:46;97610.83;;;-0.36;100.00
61898;BME280;47850;50.274;18.908;2022-12-07T00:46:13;97610.50;;;-0.35;100.00
61898;BME280;47850;50.274;18.908;2022-12-07T00:48:38;97606.48;;;-0.34;100.00
61898;BME280;47850;50.274;18.908;2022-12-07T00:51:05;97606.02;;;-0.32;100.00
61898;BME280;47850;50.274;18.908;2022-12-07T00:53:31;97605.05;;;-0.30;100.00
61898;BME280;47850;50.274;18.908;2022-12-07T00:56:07;97605.16;;;-0.30;100.00
61898;BME280;47850;50.274;18.908;2022-12-07T00:58:33;97607.48;;;-0.30;100.00
61898;BME280;47850;50.274;18.908;2022-12-07T01:01:00;97604.78;;;-0.29;100.00
61898;BME280;47850;50.274;18.908;2022-12-07T01:03:26;97602.06;;;-0.28;100.00
61898;BME280;47850;50.274;18.908;2022-12-07T01:05:53;97602.11;;;-0.29;100.00
61898;BME280;47850;50.274;18.908;2022-12-07T01:08:20;97595.20;;;-0.29;100.00
61898;BME280;47850;50.274;18.908;2022-12-07T01:10:47;97594.23;;;-0.28;100.00
61898;BME280;47850;50.274;18.908;2022-12-07T01:13:12;97589.15;;;-0.27;100.00
61898;BME280;47850;50.274;18.908;2022-12-07T01:15:42;97585.30;;;-0.25;100.00
61898;BME280;47850;50.274;18.908;2022-12-07T01:18:08;97587.06;;;-0.25;100.00
61898;BME280;47850;50.274;18.908;2022-12-07T01:20:34;97581.54;;;-0.26;100.00
61898;BME280;47850;50.274;18.908;2022-12-07T01:23:00;97581.16;;;-0.26;100.00
61898;BME280;47850;50.274;18.908;2022-12-07T01:25:26;97576.40;;;-0.26;100.00
61898;BME280;47850;50.274;18.908;2022-12-07T01:27:51;97576.18;;;-0.24;100.00
61898;BME280;47850;50.274;18.908;2022-12-07T01:30:17;97576.56;;;-0.24;100.00
61898;BME280;47850;50.274;18.908;2022-12-07T01:32:42;97576.20;;;-0.22;100.00
61898;BME280;47850;50.274;18.908;2022-12-07T01:35:08;97580.27;;;-0.19;100.00
61898;BME280;47850;50.274;18.908;2022-12-07T01:37:35;97581.40;;;-0.18;100.00
61898;BME280;47850;50.274;18.908;2022-12-07T01:40:02;97585.48;;;-0.16;100.00
61898;BME280;47850;50.274;18.908;2022-12-07T01:42:28;97582.11;;;-0.15;100.00
61898;BME280;47850;50.274;18.908;2022-12-07T01:47:42;97578.74;;;-0.12;100.00
61898;BME280;47850;50.274;18.908;2022-12-07T01:50:09;97579.27;;;-0.11;100.00
61898;BME280;47850;50.274;18.908;2022-12-07T01:52:35;97578.17;;;-0.08;100.00
61898;BME280;47850;50.274;18.908;2022-12-07T01:55:12;97577.79;;;-0.06;100.00
61898;BME280;47850;50.274;18.908;2022-12-07T01:57:43;97577.26;;;-0.04;100.00
61898;BME280;47850;50.274;18.908;2022-12-07T02:00:12;97577.33;;;-0.02;100.00
61898;BME280;47850;50.274;18.908;2022-12-07T02:02:43;97573.88;;;-0.02;100.00
61898;BME280;47850;50.274;18.908;2022-12-07T02:05:10;97578.88;;;-0.01;100.00
61898;BME280;47850;50.274;18.908;2022-12-07T02:07:38;97577.10;;;-0.02;100.00
61898;BME280;47850;50.274;18.908;2022-12-07T02:10:19;97577.64;;;-0.02;100.00
61898;BME280;47850;50.274;18.908;2022-12-07T02:12:49;97571.58;;;-0.03;100.00
61898;BME280;47850;50.274;18.908;2022-12-07T02:15:15;97574.05;;;-0.04;100.00
61898;BME280;47850;50.274;18.908;2022-12-07T02:20:30;97571.15;;;-0.02;100.00
61898;BME280;47850;50.274;18.908;2022-12-07T02:30:52;97578.67;;;0.03;100.00
61898;BME280;47850;50.274;18.908;2022-12-07T02:33:28;97578.56;;;0.05;100.00
61898;BME280;47850;50.274;18.908;2022-12-07T02:36:22;97581.36;;;0.05;100.00
61898;BME280;47850;50.274;18.908;2022-12-07T02:41:40;97578.98;;;0.04;100.00
61898;BME280;47850;50.274;18.908;2022-12-07T02:44:10;97572.50;;;0.04;100.00
61898;BME280;47850;50.274;18.908;2022-12-07T02:47:24;97572.92;;;0.02;100.00
61898;BME280;47850;50.274;18.908;2022-12-07T02:49:26;97565.15;;;0.02;100.00
61898;BME280;47850;50.274;18.908;2022-12-07T02:51:53;97563.77;;;0.01;100.00
61898;BME280;47850;50.274;18.908;2022-12-07T02:54:19;97559.48;;;-0.01;100.00
61898;BME280;47850;50.274;18.908;2022-12-07T03:07:38;97560.21;;;-0.03;100.00
61898;BME280;47850;50.274;18.908;2022-12-07T03:10:20;97558.17;;;-0.02;100.00
61898;BME280;47850;50.274;18.908;2022-12-07T03:13:03;97554.02;;;-0.00;100.00
61898;BME280;47850;50.274;18.908;2022-12-07T03:18:28;97552.23;;;-0.00;100.00
61898;BME280;47850;50.274;18.908;2022-12-07T03:20:58;97549.29;;;-0.01;100.00
61898;BME280;47850;50.274;18.908;2022-12-07T03:23:26;97549.45;;;-0.01;100.00
61898;BME280;47850;50.274;18.908;2022-12-07T03:25:56;97547.63;;;-0.01;100.00
61898;BME280;47850;50.274;18.908;2022-12-07T03:28:27;97546.13;;;0.00;100.00
61898;BME280;47850;50.274;18.908;2022-12-07T03:31:02;97544.62;;;-0.02;100.00
61898;BME280;47850;50.274;18.908;2022-12-07T03:33:40;97541.07;;;-0.03;100.00
61898;BME280;47850;50.274;18.908;2022-12-07T03:36:30;97546.39;;;-0.04;100.00
61898;BME280;47850;50.274;18.908;2022-12-07T03:39:22;97546.12;;;-0.03;100.00
61898;BME280;47850;50.274;18.908;2022-12-07T03:41:51;97543.54;;;-0.02;100.00
61898;BME280;47850;50.274;18.908;2022-12-07T03:44:18;97543.17;;;-0.03;100.00
61898;BME280;47850;50.274;18.908;2022-12-07T03:47:54;97543.54;;;-0.04;100.00
61898;BME280;47850;50.274;18.908;2022-12-07T03:52:42;97545.05;;;-0.03;100.00
61898;BME280;47850;50.274;18.908;2022-12-07T03:55:20;97543.92;;;-0.04;100.00
61898;BME280;47850;50.274;18.908;2022-12-07T03:57:51;97547.02;;;-0.03;100.00
61898;BME280;47850;50.274;18.908;2022-12-07T04:00:18;97544.55;;;-0.06;100.00
61898;BME280;47850;50.274;18.908;2022-12-07T04:02:44;97545.52;;;-0.07;100.00
61898;BME280;47850;50.274;18.908;2022-12-07T04:05:11;97544.45;;;-0.06;100.00
61898;BME280;47850;50.274;18.908;2022-12-07T04:07:37;97541.02;;;-0.07;100.00
61898;BME280;47850;50.274;18.908;2022-12-07T04:10:03;97541.08;;;-0.06;100.00
61898;BME280;47850;50.274;18.908;2022-12-07T04:12:29;97539.63;;;-0.07;100.00
61898;BME280;47850;50.274;18.908;2022-12-07T04:14:54;97536.20;;;-0.08;100.00
61898;BME280;47850;50.274;18.908;2022-12-07T04:17:20;97536.19;;;-0.09;100.00
61898;BME280;47850;50.274;18.908;2022-12-07T04:19:45;97535.81;;;-0.09;100.00
61898;BME280;47850;50.274;18.908;2022-12-07T04:22:11;97537.46;;;-0.10;100.00
61898;BME280;47850;50.274;18.908;2022-12-07T04:24:36;97533.66;;;-0.10;100.00
61898;BME280;47850;50.274;18.908;2022-12-07T04:27:02;97534.95;;;-0.10;100.00
61898;BME280;47850;50.274;18.908;2022-12-07T04:29:27;97534.58;;;-0.12;100.00
61898;BME280;47850;50.274;18.908;2022-12-07T04:31:53;97538.80;;;-0.13;100.00
61898;BME280;47850;50.274;18.908;2022-12-07T04:34:19;97538.96;;;-0.14;100.00
61898;BME280;47850;50.274;18.908;2022-12-07T04:36:45;97534.77;;;-0.15;100.00
61898;BME280;47850;50.274;18.908;2022-12-07T04:39:24;97539.60;;;-0.16;100.00
61898;BME280;47850;50.274;18.908;2022-12-07T04:41:50;97542.60;;;-0.17;100.00
61898;BME280;47850;50.274;18.908;2022-12-07T04:44:17;97543.45;;;-0.18;100.00
61898;BME280;47850;50.274;18.908;2022-12-07T04:46:43;97546.78;;;-0.19;100.00
61898;BME280;47850;50.274;18.908;2022-12-07T04:49:10;97543.73;;;-0.19;100.00
61898;BME280;47850;50.274;18.908;2022-12-07T04:51:35;97542.23;;;-0.19;100.00
61898;BME280;47850;50.274;18.908;2022-12-07T04:54:01;97543.02;;;-0.20;100.00
61898;BME280;47850;50.274;18.908;2022-12-07T04:56:26;97538.09;;;-0.21;100.00
61898;BME280;47850;50.274;18.908;2022-12-07T04:58:53;97540.29;;;-0.22;100.00
61898;BME280;47850;50.274;18.908;2022-12-07T05:01:20;97537.83;;;-0.23;100.00
61898;BME280;47850;50.274;18.908;2022-12-07T05:03:46;97536.33;;;-0.22;100.00
61898;BME280;47850;50.274;18.908;2022-12-07T05:06:11;97539.38;;;-0.24;100.00
61898;BME280;47850;50.274;18.908;2022-12-07T05:08:38;97541.88;;;-0.27;100.00
61898;BME280;47850;50.274;18.908;2022-12-07T05:11:04;97544.98;;;-0.27;100.00
61898;BME280;47850;50.274;18.908;2022-12-07T05:13:31;97545.95;;;-0.27;100.00
61898;BME280;47850;50.274;18.908;2022-12-07T05:15:57;97546.55;;;-0.27;100.00
61898;BME280;47850;50.274;18.908;2022-12-07T05:18:23;97546.45;;;-0.28;100.00
61898;BME280;47850;50.274;18.908;2022-12-07T05:20:49;97543.33;;;-0.30;100.00
61898;BME280;47850;50.274;18.908;2022-12-07T05:23:14;97540.64;;;-0.31;100.00
61898;BME280;47850;50.274;18.908;2022-12-07T05:25:40;97545.52;;;-0.32;100.00
61898;BME280;47850;50.274;18.908;2022-12-07T05:28:06;97547.42;;;-0.33;100.00
61898;BME280;47850;50.274;18.908;2022-12-07T05:30:32;97547.88;;;-0.35;100.00
61898;BME280;47850;50.274;18.908;2022-12-07T05:32:57;97550.48;;;-0.36;100.00
61898;BME280;47850;50.274;18.908;2022-12-07T05:35:23;97548.13;;;-0.36;100.00
61898;BME280;47850;50.274;18.908;2022-12-07T05:37:49;97546.90;;;-0.36;100.00
61898;BME280;47850;50.274;18.908;2022-12-07T05:40:15;97549.83;;;-0.38;100.00
61898;BME280;47850;50.274;18.908;2022-12-07T05:42:41;97546.02;;;-0.38;100.00
61898;BME280;47850;50.274;18.908;2022-12-07T05:45:08;97543.98;;;-0.38;100.00
61898;BME280;47850;50.274;18.908;2022-12-07T05:47:35;97547.15;;;-0.39;100.00
61898;BME280;47850;50.274;18.908;2022-12-07T05:50:01;97546.77;;;-0.40;100.00
61898;BME280;47850;50.274;18.908;2022-12-07T05:52:26;97549.55;;;-0.40;100.00
61898;BME280;47850;50.274;18.908;2022-12-07T05:54:52;97547.24;;;-0.41;100.00
61898;BME280;47850;50.274;18.908;2022-12-07T05:57:18;97546.23;;;-0.41;100.00
61898;BME280;47850;50.274;18.908;2022-12-07T05:59:43;97543.67;;;-0.42;100.00
61898;BME280;47850;50.274;18.908;2022-12-07T06:02:14;97547.32;;;-0.42;100.00
61898;BME280;47850;50.274;18.908;2022-12-07T06:04:45;97544.04;;;-0.42;100.00
61898;BME280;47850;50.274;18.908;2022-12-07T06:07:12;97549.66;;;-0.43;100.00
61898;BME280;47850;50.274;18.908;2022-12-07T06:09:38;97551.64;;;-0.43;100.00
61898;BME280;47850;50.274;18.908;2022-12-07T06:12:05;97554.76;;;-0.42;100.00
61898;BME280;47850;50.274;18.908;2022-12-07T06:14:49;97555.61;;;-0.43;100.00
61898;BME280;47850;50.274;18.908;2022-12-07T06:17:15;97559.39;;;-0.44;100.00
61898;BME280;47850;50.274;18.908;2022-12-07T06:19:41;97563.58;;;-0.44;100.00
61898;BME280;47850;50.274;18.908;2022-12-07T06:22:08;97562.88;;;-0.46;100.00
61898;BME280;47850;50.274;18.908;2022-12-07T06:24:34;97566.40;;;-0.46;100.00
61898;BME280;47850;50.274;18.908;2022-12-07T06:27:00;97567.17;;;-0.46;100.00
61898;BME280;47850;50.274;18.908;2022-12-07T06:29:26;97567.31;;;-0.47;100.00
61898;BME280;47850;50.274;18.908;2022-12-07T06:31:52;97568.38;;;-0.48;100.00
61898;BME280;47850;50.274;18.908;2022-12-07T06:34:19;97572.84;;;-0.48;100.00
61898;BME280;47850;50.274;18.908;2022-12-07T06:36:46;97575.02;;;-0.50;100.00
61898;BME280;47850;50.274;18.908;2022-12-07T06:39:16;97576.30;;;-0.52;100.00
61898;BME280;47850;50.274;18.908;2022-12-07T06:41:42;97576.61;;;-0.51;100.00
61898;BME280;47850;50.274;18.908;2022-12-07T06:44:07;97578.83;;;-0.52;100.00
61898;BME280;47850;50.274;18.908;2022-12-07T06:46:33;97575.39;;;-0.50;100.00
61898;BME280;47850;50.274;18.908;2022-12-07T06:49:00;97581.19;;;-0.51;100.00
61898;BME280;47850;50.274;18.908;2022-12-07T06:51:26;97577.70;;;-0.50;100.00
61898;BME280;47850;50.274;18.908;2022-12-07T06:53:51;97579.69;;;-0.50;100.00
61898;BME280;47850;50.274;18.908;2022-12-07T06:56:17;97578.40;;;-0.49;100.00
61898;BME280;47850;50.274;18.908;2022-12-07T06:58:42;97578.89;;;-0.50;100.00
61898;BME280;47850;50.274;18.908;2022-12-07T07:01:10;97580.48;;;-0.51;100.00
61898;BME280;47850;50.274;18.908;2022-12-07T07:03:35;97580.60;;;-0.51;100.00
61898;BME280;47850;50.274;18.908;2022-12-07T07:06:01;97581.61;;;-0.51;100.00
61898;BME280;47850;50.274;18.908;2022-12-07T07:08:26;97580.05;;;-0.52;100.00
61898;BME280;47850;50.274;18.908;2022-12-07T07:10:51;97581.40;;;-0.51;100.00
61898;BME280;47850;50.274;18.908;2022-12-07T07:13:17;97582.69;;;-0.50;100.00
61898;BME280;47850;50.274;18.908;2022-12-07T07:15:42;97582.31;;;-0.49;100.00
61898;BME280;47850;50.274;18.908;2022-12-07T07:18:08;97589.00;;;-0.49;100.00
61898;BME280;47850;50.274;18.908;2022-12-07T07:20:34;97588.80;;;-0.47;100.00
61898;BME280;47850;50.274;18.908;2022-12-07T07:22:59;97587.29;;;-0.48;100.00
61898;BME280;47850;50.274;18.908;2022-12-07T07:25:24;97587.58;;;-0.46;100.00
61898;BME280;47850;50.274;18.908;2022-12-07T07:27:50;97586.02;;;-0.44;100.00
61898;BME280;47850;50.274;18.908;2022-12-07T07:30:15;97587.33;;;-0.42;100.00
61898;BME280;47850;50.274;18.908;2022-12-07T07:32:41;97585.66;;;-0.41;100.00
61898;BME280;47850;50.274;18.908;2022-12-07T07:35:06;97592.05;;;-0.39;100.00
61898;BME280;47850;50.274;18.908;2022-12-07T07:37:32;97590.03;;;-0.36;100.00
61898;BME280;47850;50.274;18.908;2022-12-07T07:39:57;97591.20;;;-0.35;100.00
61898;BME280;47850;50.274;18.908;2022-12-07T07:42:23;97586.33;;;-0.34;100.00
61898;BME280;47850;50.274;18.908;2022-12-07T07:44:48;97585.65;;;-0.32;100.00
61898;BME280;47850;50.274;18.908;2022-12-07T07:47:14;97587.80;;;-0.28;100.00
61898;BME280;47850;50.274;18.908;2022-12-07T07:49:39;97585.56;;;-0.26;100.00
61898;BME280;47850;50.274;18.908;2022-12-07T07:52:05;97585.15;;;-0.22;100.00
61898;BME280;47850;50.274;18.908;2022-12-07T07:54:31;97586.50;;;-0.18;100.00
61898;BME280;47850;50.274;18.908;2022-12-07T07:56:57;97585.81;;;-0.13;100.00
61898;BME280;47850;50.274;18.908;2022-12-07T07:59:23;97585.77;;;-0.09;100.00
61898;BME280;47850;50.274;18.908;2022-12-07T08:01:48;97582.95;;;-0.03;100.00
61898;BME280;47850;50.274;18.908;2022-12-07T08:04:14;97587.46;;;0.03;100.00
61898;BME280;47850;50.274;18.908;2022-12-07T08:06:39;97586.67;;;0.08;100.00
61898;BME280;47850;50.274;18.908;2022-12-07T08:09:07;97585.23;;;0.13;100.00
61898;BME280;47850;50.274;18.908;2022-12-07T08:11:34;97586.21;;;0.19;100.00
61898;BME280;47850;50.274;18.908;2022-12-07T08:13:59;97592.34;;;0.23;100.00
61898;BME280;47850;50.274;18.908;2022-12-07T08:16:25;97595.11;;;0.27;100.00
61898;BME280;47850;50.274;18.908;2022-12-07T08:18:51;97597.42;;;0.30;100.00
61898;BME280;47850;50.274;18.908;2022-12-07T08:21:16;97601.94;;;0.31;100.00
61898;BME280;47850;50.274;18.908;2022-12-07T08:23:42;97599.09;;;0.29;100.00
61898;BME280;47850;50.274;18.908;2022-12-07T08:26:10;97602.20;;;0.28;100.00
61898;BME280;47850;50.274;18.908;2022-12-07T08:28:36;97604.02;;;0.28;100.00
61898;BME280;47850;50.274;18.908;2022-12-07T08:31:05;97604.17;;;0.28;100.00
61898;BME280;47850;50.274;18.908;2022-12-07T08:33:31;97610.52;;;0.29;100.00
61898;BME280;47850;50.274;18.908;2022-12-07T08:36:11;97612.83;;;0.31;100.00
61898;BME280;47850;50.274;18.908;2022-12-07T08:38:38;97610.73;;;0.32;100.00
61898;BME280;47850;50.274;18.908;2022-12-07T08:41:04;97615.77;;;0.33;100.00
61898;BME280;47850;50.274;18.908;2022-12-07T08:43:30;97617.50;;;0.33;100.00
61898;BME280;47850;50.274;18.908;2022-12-07T08:46:13;97619.32;;;0.34;100.00
61898;BME280;47850;50.274;18.908;2022-12-07T08:49:17;97632.95;;;0.34;100.00
61898;BME280;47850;50.274;18.908;2022-12-07T08:51:44;97634.83;;;0.32;100.00
61898;BME280;47850;50.274;18.908;2022-12-07T08:54:13;97634.48;;;0.32;100.00
61898;BME280;47850;50.274;18.908;2022-12-07T08:56:40;97632.52;;;0.32;100.00
61898;BME280;47850;50.274;18.908;2022-12-07T08:59:06;97629.83;;;0.33;100.00
61898;BME280;47850;50.274;18.908;2022-12-07T09:01:32;97627.47;;;0.36;100.00
61898;BME280;47850;50.274;18.908;2022-12-07T09:03:58;97630.95;;;0.38;100.00
61898;BME280;47850;50.274;18.908;2022-12-07T09:06:23;97624.89;;;0.39;100.00
61898;BME280;47850;50.274;18.908;2022-12-07T09:08:53;97622.50;;;0.41;100.00
61898;BME280;47850;50.274;18.908;2022-12-07T09:11:20;97618.52;;;0.42;100.00
61898;BME280;47850;50.274;18.908;2022-12-07T09:13:45;97615.84;;;0.41;100.00
61898;BME280;47850;50.274;18.908;2022-12-07T09:16:11;97617.94;;;0.43;100.00
61898;BME280;47850;50.274;18.908;2022-12-07T09:18:38;97611.77;;;0.46;100.00
61898;BME280;47850;50.274;18.908;2022-12-07T09:21:04;97609.52;;;0.50;100.00
61898;BME280;47850;50.274;18.908;2022-12-07T09:23:29;97601.95;;;0.57;100.00
61898;BME280;47850;50.274;18.908;2022-12-07T09:25:59;97597.72;;;0.61;100.00
61898;BME280;47850;50.274;18.908;2022-12-07T09:28:25;97592.41;;;0.66;100.00
61898;BME280;47850;50.274;18.908;2022-12-07T09:30:51;97591.27;;;0.68;100.00
61898;BME280;47850;50.274;18.908;2022-12-07T09:33:16;97589.07;;;0.70;100.00
61898;BME280;47850;50.274;18.908;2022-12-07T09:35:49;97587.67;;;0.76;100.00
61898;BME280;47850;50.274;18.908;2022-12-07T09:38:15;97585.57;;;0.80;100.00
61898;BME280;47850;50.274;18.908;2022-12-07T09:40:41;97583.21;;;0.83;100.00
61898;BME280;47850;50.274;18.908;2022-12-07T09:43:20;97579.51;;;0.86;100.00
61898;BME280;47850;50.274;18.908;2022-12-07T09:45:48;97573.65;;;0.88;100.00
61898;BME280;47850;50.274;18.908;2022-12-07T09:48:18;97572.58;;;0.90;100.00
61898;BME280;47850;50.274;18.908;2022-12-07T09:50:47;97571.17;;;0.94;100.00
61898;BME280;47850;50.274;18.908;2022-12-07T09:53:20;97569.08;;;0.99;100.00
61898;BME280;47850;50.274;18.908;2022-12-07T09:55:48;97565.04;;;1.03;99.96
61898;BME280;47850;50.274;18.908;2022-12-07T09:58:20;97568.58;;;1.05;99.98
61898;BME280;47850;50.274;18.908;2022-12-07T10:00:46;97564.05;;;1.05;99.89
61898;BME280;47850;50.274;18.908;2022-12-07T10:03:12;97560.73;;;1.07;99.80
61898;BME280;47850;50.274;18.908;2022-12-07T10:05:44;97555.66;;;1.13;99.60
61898;BME280;47850;50.274;18.908;2022-12-07T10:08:12;97546.17;;;1.24;99.80
61898;BME280;47850;50.274;18.908;2022-12-07T10:10:38;97540.17;;;1.36;99.64
61898;BME280;47850;50.274;18.908;2022-12-07T10:13:19;97537.89;;;1.46;99.59
61898;BME280;47850;50.274;18.908;2022-12-07T10:18:45;97537.61;;;1.58;99.31
61898;BME280;47850;50.274;18.908;2022-12-07T10:23:41;97527.50;;;1.71;98.83
61898;BME280;47850;50.274;18.908;2022-12-07T10:32:03;97520.99;;;1.98;98.25
61898;BME280;47850;50.274;18.908;2022-12-07T10:34:36;97520.27;;;2.10;97.62
61898;BME280;47850;50.274;18.908;2022-12-07T10:40:10;97515.59;;;2.56;97.02
61898;BME280;47850;50.274;18.908;2022-12-07T10:42:31;97513.36;;;2.75;95.60
61898;BME280;47850;50.274;18.908;2022-12-07T10:45:17;97516.81;;;2.76;94.40
61898;BME280;47850;50.274;18.908;2022-12-07T10:48:06;97512.48;;;2.68;94.56
61898;BME280;47850;50.274;18.908;2022-12-07T11:15:28;97504.48;;;2.14;94.23
61898;BME280;47850;50.274;18.908;2022-12-07T11:18:09;97500.99;;;2.11;93.89
61898;BME280;47850;50.274;18.908;2022-12-07T11:21:09;97498.70;;;2.10;93.54
61898;BME280;47850;50.274;18.908;2022-12-07T11:29:02;97484.30;;;2.07;92.87
61898;BME280;47850;50.274;18.908;2022-12-07T11:37:25;97471.56;;;2.13;92.14
61898;BME280;47850;50.274;18.908;2022-12-07T11:40:03;97474.79;;;2.15;91.62
61898;BME280;47850;50.274;18.908;2022-12-07T11:42:35;97476.27;;;2.17;91.62
61898;BME280;47850;50.274;18.908;2022-12-07T11:47:48;97461.72;;;2.32;91.22
61898;BME280;47850;50.274;18.908;2022-12-07T11:50:36;97463.03;;;2.42;90.51
61898;BME280;47850;50.274;18.908;2022-12-07T12:03:46;97464.69;;;6.04;77.48
61898;BME280;47850;50.274;18.908;2022-12-07T12:06:13;97462.96;;;6.62;77.32
61898;BME280;47850;50.274;18.908;2022-12-07T12:08:43;97464.52;;;7.19;75.97
61898;BME280;47850;50.274;18.908;2022-12-07T12:19:11;97475.44;;;8.50;68.46
61898;BME280;47850;50.274;18.908;2022-12-07T12:21:42;97472.91;;;8.08;67.87
61898;BME280;47850;50.274;18.908;2022-12-07T12:24:20;97470.13;;;7.38;69.34
61898;BME280;47850;50.274;18.908;2022-12-07T12:27:05;97468.15;;;6.71;70.74
61898;BME280;47850;50.274;18.908;2022-12-07T12:29:39;97467.64;;;6.06;71.73
61898;BME280;47850;50.274;18.908;2022-12-07T12:32:15;97463.77;;;5.62;72.85
61898;BME280;47850;50.274;18.908;2022-12-07T12:42:50;97447.17;;;4.76;73.58
61898;BME280;47850;50.274;18.908;2022-12-07T12:47:57;97437.02;;;4.56;74.77
61898;BME280;47850;50.274;18.908;2022-12-07T12:50:27;97432.15;;;4.71;74.60
61898;BME280;47850;50.274;18.908;2022-12-07T12:53:15;97433.50;;;4.62;73.85
61898;BME280;47850;50.274;18.908;2022-12-07T12:58:38;97434.05;;;4.15;75.29
61898;BME280;47850;50.274;18.908;2022-12-07T13:04:01;97435.75;;;3.63;75.86
61898;BME280;47850;50.274;18.908;2022-12-07T13:08:55;97440.45;;;3.26;77.01
61898;BME280;47850;50.274;18.908;2022-12-07T13:11:34;97442.16;;;3.11;77.71
61898;BME280;47850;50.274;18.908;2022-12-07T13:17:58;97449.61;;;2.81;78.43
61898;BME280;47850;50.274;18.908;2022-12-07T13:29:11;97454.39;;;2.52;79.76
61898;BME280;47850;50.274;18.908;2022-12-07T13:31:49;97456.02;;;2.48;79.90
61898;BME280;47850;50.274;18.908;2022-12-07T13:36:56;97454.36;;;2.48;78.87
61898;BME280;47850;50.274;18.908;2022-12-07T13:39:25;97458.59;;;2.50;78.19
61898;BME280;47850;50.274;18.908;2022-12-07T13:41:56;97454.92;;;2.51;77.93
61898;BME280;47850;50.274;18.908;2022-12-07T13:44:28;97464.31;;;2.48;77.85
61898;BME280;47850;50.274;18.908;2022-12-07T13:47:06;97465.70;;;2.45;77.25
61898;BME280;47850;50.274;18.908;2022-12-07T13:49:38;97465.66;;;2.38;77.09
61898;BME280;47850;50.274;18.908;2022-12-07T13:52:24;97469.63;;;2.32;76.90
61898;BME280;47850;50.274;18.908;2022-12-07T13:57:33;97467.11;;;2.18;77.22
61898;BME280;47850;50.274;18.908;2022-12-07T14:00:02;97469.71;;;2.15;77.78
61898;BME280;47850;50.274;18.908;2022-12-07T14:02:31;97471.41;;;2.11;77.64
61898;BME280;47850;50.274;18.908;2022-12-07T14:07:58;97475.34;;;2.05;78.59
61898;BME280;47850;50.274;18.908;2022-12-07T14:10:28;97481.25;;;2.04;78.93
61898;BME280;47850;50.274;18.908;2022-12-07T14:12:55;97482.73;;;2.02;79.13
61898;BME280;47850;50.274;18.908;2022-12-07T14:15:27;97482.84;;;2.01;79.30
61898;BME280;47850;50.274;18.908;2022-12-07T14:17:54;97487.04;;;1.98;79.59
61898;BME280;47850;50.274;18.908;2022-12-07T14:20:33;97484.50;;;1.95;79.87
61898;BME280;47850;50.274;18.908;2022-12-07T14:22:59;97486.55;;;1.92;80.22
61898;BME280;47850;50.274;18.908;2022-12-07T14:25:45;97491.79;;;1.90;79.92
61898;BME280;47850;50.274;18.908;2022-12-07T14:28:29;97495.09;;;1.87;80.11
61898;BME280;47850;50.274;18.908;2022-12-07T14:30:56;97493.70;;;1.87;80.53
61898;BME280;47850;50.274;18.908;2022-12-07T14:33:23;97494.08;;;1.86;80.88
61898;BME280;47850;50.274;18.908;2022-12-07T14:35:49;97495.96;;;1.86;80.97
61898;BME280;47850;50.274;18.908;2022-12-07T14:38:15;97495.48;;;1.84;81.12
61898;BME280;47850;50.274;18.908;2022-12-07T14:40:40;97499.14;;;1.84;81.35
61898;BME280;47850;50.274;18.908;2022-12-07T14:43:11;97494.90;;;1.83;81.31
61898;BME280;47850;50.274;18.908;2022-12-07T14:45:38;97511.20;;;1.81;81.56
61898;BME280;47850;50.274;18.908;2022-12-07T14:48:05;97506.81;;;1.80;81.77
61898;BME280;47850;50.274;18.908;2022-12-07T14:50:36;97506.75;;;1.80;81.84
61898;BME280;47850;50.274;18.908;2022-12-07T14:53:18;97504.17;;;1.78;81.83
61898;BME280;47850;50.274;18.908;2022-12-07T14:55:48;97511.71;;;1.76;81.67
61898;BME280;47850;50.274;18.908;2022-12-07T14:58:14;97510.55;;;1.73;81.50
61898;BME280;47850;50.274;18.908;2022-12-07T15:00:40;97509.43;;;1.72;81.75
61898;BME280;47850;50.274;18.908;2022-12-07T15:03:05;97511.02;;;1.71;81.66
61898;BME280;47850;50.274;18.908;2022-12-07T15:05:31;97513.32;;;1.69;81.39
61898;BME280;47850;50.274;18.908;2022-12-07T15:07:56;97514.63;;;1.66;81.25
61898;BME280;47850;50.274;18.908;2022-12-07T15:10:27;97515.83;;;1.62;81.16
61898;BME280;47850;50.274;18.908;2022-12-07T15:13:00;97516.66;;;1.58;81.22
61898;BME280;47850;50.274;18.908;2022-12-07T15:15:48;97507.52;;;1.55;81.61
61898;BME280;47850;50.274;18.908;2022-12-07T15:18:14;97513.61;;;1.53;81.55
61898;BME280;47850;50.274;18.908;2022-12-07T15:20:40;97515.60;;;1.50;81.38
61898;BME280;47850;50.274;18.908;2022-12-07T15:23:06;97516.13;;;1.47;81.50